createdAt,value
2022-08-09T00:01:10.317Z,19.02
2022-08-09T00:04:05.534Z,19.03
2022-08-09T00:06:38.026Z,18.95
2022-08-09T00:09:10.520Z,19.08
2022-08-09T00:12:03.830Z,19.30
2022-08-09T00:14:38.352Z,19.43
2022-08-09T00:17:15.132Z,19.37
2022-08-09T00:20:01.902Z,19.21
2022-08-09T00:22:36.318Z,19.23
2022-08-09T00:25:12.818Z,19.29
2022-08-09T00:27:44.236Z,19.29
2022-08-09T00:30:26.030Z,19.19
2022-08-09T00:32:58.348Z,19.06
2022-08-09T00:35:29.943Z,18.95
2022-08-09T00:38:16.064Z,19.02
2022-08-09T00:40:54.039Z,19.06
2022-08-09T00:44:15.860Z,19.01
2022-08-09T00:46:44.098Z,19.15
2022-08-09T00:49:10.954Z,19.28
2022-08-09T00:51:42.718Z,19.24
2022-08-09T00:54:31.524Z,19.19
2022-08-09T00:57:10.311Z,19.14
2022-08-09T00:59:46.306Z,19.14
2022-08-09T01:02:23.097Z,19.20
2022-08-09T01:05:03.281Z,19.22
2022-08-09T01:07:59.748Z,19.10
2022-08-09T01:10:39.404Z,19.24
2022-08-09T01:13:22.371Z,19.24
2022-08-09T01:15:56.753Z,19.10
2022-08-09T01:18:32.586Z,18.99
2022-08-09T01:21:18.411Z,18.97
2022-08-09T01:24:04.998Z,18.91
2022-08-09T01:27:02.490Z,19.07
2022-08-09T01:29:56.095Z,18.99
2022-08-09T01:32:34.258Z,18.95
2022-08-09T01:35:38.047Z,18.72
2022-08-09T01:38:10.761Z,18.67
2022-08-09T01:40:52.926Z,18.75
2022-08-09T01:43:50.577Z,18.73
2022-08-09T01:46:27.699Z,18.85
2022-08-09T01:49:09.431Z,18.65
2022-08-09T01:51:54.011Z,18.64
2022-08-09T01:54:32.550Z,18.65
2022-08-09T01:57:14.964Z,18.63
2022-08-09T01:59:51.651Z,18.63
2022-08-09T02:02:30.105Z,18.68
2022-08-09T02:05:15.719Z,18.52
2022-08-09T02:08:39.194Z,18.52
2022-08-09T02:10:50.683Z,18.45
2022-08-09T02:13:26.108Z,18.30
2022-08-09T02:16:11.573Z,18.22
2022-08-09T02:18:47.654Z,18.16
2022-08-09T02:21:24.898Z,18.06
2022-08-09T02:24:02.040Z,18.14
2022-08-09T02:26:36.013Z,18.15
2022-08-09T02:29:18.109Z,18.07
2022-08-09T02:31:51.583Z,18.03
2022-08-09T02:34:40.161Z,18.07
2022-08-09T02:37:16.654Z,18.10
2022-08-09T02:39:55.206Z,18.12
2022-08-09T02:42:36.502Z,18.18
2022-08-09T02:45:13.231Z,18.13
2022-08-09T02:47:59.203Z,18.19
2022-08-09T02:50:36.499Z,18.26
2022-08-09T02:53:25.822Z,18.26
2022-08-09T02:56:01.139Z,18.34
2022-08-09T02:58:36.681Z,18.23
2022-08-09T03:01:15.106Z,18.14
2022-08-09T03:04:17.011Z,18.18
2022-08-09T03:06:49.232Z,18.13
2022-08-09T03:09:21.995Z,18.17
2022-08-09T03:12:11.023Z,18.28
2022-08-09T03:14:44.343Z,18.26
2022-08-09T03:17:26.409Z,18.11
2022-08-09T03:20:05.172Z,18.08
2022-08-09T03:22:56.833Z,18.12
2022-08-09T03:25:56.944Z,18.21
2022-08-09T03:28:24.605Z,18.04
2022-08-09T03:30:57.859Z,18.12
2022-08-09T03:33:53.484Z,18.12
2022-08-09T03:36:37.818Z,18.23
2022-08-09T03:39:16.931Z,18.29
2022-08-09T03:42:06.395Z,18.24
2022-08-09T03:44:44.335Z,18.25
2022-08-09T03:47:16.035Z,18.20
2022-08-09T03:49:58.273Z,18.18
2022-08-09T03:52:33.191Z,18.19
2022-08-09T03:55:09.900Z,18.15
2022-08-09T03:57:53.468Z,18.04
2022-08-09T04:00:34.629Z,17.99
2022-08-09T04:03:08.536Z,18.08
2022-08-09T04:05:43.838Z,18.18
2022-08-09T04:08:17.182Z,18.21
2022-08-09T04:10:49.797Z,18.20
2022-08-09T04:13:45.105Z,18.14
2022-08-09T04:16:20.632Z,18.09
2022-08-09T04:18:52.906Z,18.14
2022-08-09T04:21:25.532Z,18.21
2022-08-09T04:23:57.555Z,18.37
2022-08-09T04:26:35.203Z,18.33
2022-08-09T04:29:15.690Z,18.18
2022-08-09T04:31:47.885Z,18.33
2022-08-09T04:34:31.958Z,18.36
2022-08-09T04:37:04.066Z,18.40
2022-08-09T04:39:40.593Z,18.43
2022-08-09T04:42:15.891Z,18.30
2022-08-09T04:44:49.903Z,18.27
2022-08-09T04:47:25.283Z,18.30
2022-08-09T04:50:04.769Z,18.25
2022-08-09T04:52:36.655Z,18.33
2022-08-09T04:55:11.990Z,18.44
2022-08-09T04:57:58.923Z,18.31
2022-08-09T05:00:36.052Z,18.47
2022-08-09T05:03:30.617Z,18.47
2022-08-09T05:06:06.414Z,18.52
2022-08-09T05:08:43.910Z,18.54
2022-08-09T05:11:19.151Z,18.58
2022-08-09T05:13:55.050Z,18.80
2022-08-09T05:16:31.751Z,18.75
2022-08-09T05:19:03.768Z,18.81
2022-08-09T05:21:47.173Z,18.84
2022-08-09T05:24:27.360Z,18.96
2022-08-09T05:26:59.461Z,19.00
2022-08-09T05:29:35.412Z,18.88
2022-08-09T05:32:08.326Z,18.70
2022-08-09T05:34:42.913Z,18.75
2022-08-09T05:37:17.215Z,18.82
2022-08-09T05:39:48.755Z,18.88
2022-08-09T05:42:33.405Z,19.03
2022-08-09T05:45:06.090Z,19.26
2022-08-09T05:47:45.609Z,19.31
2022-08-09T05:50:44.315Z,19.27
2022-08-09T05:53:30.955Z,19.20
2022-08-09T05:56:05.156Z,19.18
2022-08-09T05:58:36.676Z,19.14
2022-08-09T06:01:08.120Z,19.09
2022-08-09T06:03:57.991Z,19.16
2022-08-09T06:06:30.176Z,19.17
2022-08-09T06:09:09.912Z,19.28
2022-08-09T06:11:56.911Z,19.37
2022-08-09T06:14:28.554Z,19.47
2022-08-09T06:17:09.155Z,19.41
2022-08-09T06:19:41.388Z,19.49
2022-08-09T06:22:15.438Z,19.49
2022-08-09T06:24:47.049Z,19.51
2022-08-09T06:27:20.616Z,19.57
2022-08-09T06:29:58.581Z,19.46
2022-08-09T06:32:59.733Z,19.49
2022-08-09T06:35:55.924Z,19.65
2022-08-09T06:38:19.961Z,19.77
2022-08-09T06:41:03.682Z,19.80
2022-08-09T06:43:35.214Z,19.83
2022-08-09T06:46:11.276Z,19.78
2022-08-09T06:49:02.517Z,19.76
2022-08-09T06:51:39.139Z,19.78
2022-08-09T06:54:15.015Z,19.72
2022-08-09T06:56:47.025Z,19.87
2022-08-09T07:00:49.910Z,20.05
2022-08-09T07:02:10.262Z,20.01
2022-08-09T07:04:41.829Z,20.02
2022-08-09T07:08:00.144Z,20.04
2022-08-09T07:10:22.404Z,20.36
2022-08-09T07:12:57.754Z,20.59
2022-08-09T07:16:38.721Z,20.66
2022-08-09T07:18:21.442Z,20.86
2022-08-09T07:20:52.791Z,20.88
2022-08-09T07:23:24.379Z,20.97
2022-08-09T07:26:02.667Z,21.11
2022-08-09T07:28:35.077Z,21.08
2022-08-09T07:31:08.392Z,21.08
2022-08-09T07:33:52.995Z,21.02
2022-08-09T07:36:27.146Z,21.18
2022-08-09T07:39:01.060Z,21.26
2022-08-09T07:41:38.658Z,21.33
2022-08-09T07:44:15.751Z,21.36
2022-08-09T07:46:55.629Z,21.63
2022-08-09T07:49:29.476Z,21.69
2022-08-09T07:52:27.083Z,21.72
2022-08-09T07:54:57.548Z,21.74
2022-08-09T07:57:33.954Z,21.68
2022-08-09T08:00:10.714Z,21.79
2022-08-09T08:02:42.360Z,21.97
2022-08-09T08:05:18.050Z,22.08
2022-08-09T08:08:45.217Z,22.25
2022-08-09T08:10:48.761Z,22.42
2022-08-09T08:13:40.038Z,22.40
2022-08-09T08:16:29.534Z,22.37
2022-08-09T08:19:04.489Z,22.50
2022-08-09T08:21:39.735Z,22.53
2022-08-09T08:24:16.627Z,22.60
2022-08-09T08:26:55.731Z,22.68
2022-08-09T08:29:39.405Z,22.70
2022-08-09T08:32:27.477Z,22.96
2022-08-09T08:35:01.412Z,22.97
2022-08-09T08:37:41.955Z,22.95
2022-08-09T08:40:26.968Z,23.26
2022-08-09T08:43:01.513Z,23.42
2022-08-09T08:45:50.746Z,23.58
2022-08-09T08:48:29.230Z,23.70
2022-08-09T08:51:02.590Z,23.79
2022-08-09T08:53:37.233Z,23.78
2022-08-09T08:56:16.784Z,23.79
2022-08-09T08:58:57.124Z,23.78
2022-08-09T09:01:28.617Z,23.82
2022-08-09T09:04:17.874Z,23.82
2022-08-09T09:07:02.959Z,23.82
2022-08-09T09:09:57.910Z,23.81
2022-08-09T09:12:35.603Z,23.92
2022-08-09T09:15:08.795Z,23.98
2022-08-09T09:17:49.609Z,24.18
2022-08-09T09:20:25.794Z,24.23
2022-08-09T09:23:01.613Z,24.26
2022-08-09T09:26:03.210Z,24.15
2022-08-09T09:29:01.801Z,24.06
2022-08-09T09:32:06.815Z,23.96
2022-08-09T09:34:19.869Z,23.84
2022-08-09T09:36:54.493Z,23.76
2022-08-09T09:39:54.898Z,23.80
2022-08-09T09:42:28.058Z,23.87
2022-08-09T09:45:05.561Z,23.86
2022-08-09T09:47:47.676Z,23.91
2022-08-09T09:50:51.039Z,23.85
2022-08-09T09:53:43.893Z,23.58
2022-08-09T09:56:30.956Z,23.60
2022-08-09T09:59:03.707Z,23.63
2022-08-09T10:01:38.152Z,23.67
2022-08-09T10:04:22.844Z,23.75
2022-08-09T10:07:03.288Z,23.87
2022-08-09T10:09:54.579Z,24.02
2022-08-09T10:12:34.708Z,24.10
2022-08-09T10:15:25.383Z,24.27
2022-08-09T10:18:15.239Z,24.35
2022-08-09T10:20:48.141Z,24.31
2022-08-09T10:23:24.266Z,24.26
2022-08-09T10:26:08.093Z,24.09
2022-08-09T10:28:48.778Z,24.01
2022-08-09T10:34:32.965Z,24.14
2022-08-09T10:37:09.644Z,24.31
2022-08-09T10:39:48.903Z,24.43
2022-08-09T10:42:21.215Z,24.64
2022-08-09T10:45:01.552Z,24.65
2022-08-09T10:48:20.265Z,24.65
2022-08-09T10:51:09.770Z,24.56
2022-08-09T10:53:58.597Z,24.48
2022-08-09T10:56:35.093Z,24.46
2022-08-09T10:59:43.177Z,24.34
2022-08-09T11:03:16.530Z,24.44
2022-08-09T11:05:32.883Z,24.49
2022-08-09T11:11:08.755Z,24.44
2022-08-09T11:13:54.489Z,24.58
2022-08-09T11:16:41.023Z,24.65
2022-08-09T11:19:13.126Z,24.66
2022-08-09T11:22:16.583Z,24.74
2022-08-09T11:25:14.565Z,24.72
2022-08-09T11:28:03.789Z,24.73
2022-08-09T11:30:39.782Z,24.60
2022-08-09T11:33:50.251Z,24.50
2022-08-09T11:36:35.687Z,24.43
2022-08-09T11:39:08.652Z,24.67
2022-08-09T11:41:43.168Z,24.64
2022-08-09T11:44:17.358Z,24.67
2022-08-09T11:46:57.380Z,24.68
2022-08-09T11:50:54.017Z,24.76
2022-08-09T11:53:59.385Z,24.96
2022-08-09T11:56:41.751Z,24.97
2022-08-09T11:59:30.594Z,24.89
2022-08-09T12:02:18.087Z,24.83
2022-08-09T12:04:58.850Z,24.72
2022-08-09T12:07:41.503Z,24.71
2022-08-09T12:10:38.294Z,24.74
2022-08-09T12:14:09.658Z,24.79
2022-08-09T12:16:06.900Z,24.86
2022-08-09T12:18:59.200Z,24.93
2022-08-09T12:21:38.713Z,25.06
2022-08-09T12:24:13.190Z,25.16
2022-08-09T12:29:13.384Z,25.11
2022-08-09T12:29:51.297Z,25.07
2022-08-09T12:32:30.016Z,25.14
2022-08-09T12:35:05.083Z,25.14
2022-08-09T12:37:50.316Z,24.95
2022-08-09T12:40:27.491Z,24.83
2022-08-09T12:42:59.724Z,24.89
2022-08-09T12:45:35.018Z,24.97
2022-08-09T12:48:27.937Z,25.21
2022-08-09T12:51:04.819Z,25.30
2022-08-09T12:53:40.955Z,25.33
2022-08-09T12:56:40.181Z,25.36
2022-08-09T12:59:12.049Z,25.36
2022-08-09T13:01:49.858Z,25.24
2022-08-09T13:04:36.294Z,25.20
2022-08-09T13:07:19.406Z,25.20
2022-08-09T13:10:05.476Z,25.16
2022-08-09T13:13:09.127Z,25.12
2022-08-09T13:15:54.086Z,25.23
2022-08-09T13:18:27.833Z,25.25
2022-08-09T13:22:34.111Z,25.22
2022-08-09T13:24:07.004Z,25.26
2022-08-09T13:26:53.624Z,25.45
2022-08-09T13:29:41.913Z,25.50
2022-08-09T13:32:26.601Z,25.36
2022-08-09T13:35:00.405Z,25.36
2022-08-09T13:37:52.302Z,25.36
2022-08-09T13:41:46.924Z,25.30
2022-08-09T13:43:19.030Z,25.32
2022-08-09T13:46:43.249Z,25.36
2022-08-09T13:48:42.820Z,25.32
2022-08-09T13:51:20.064Z,25.23
2022-08-09T13:53:52.695Z,25.10
2022-08-09T13:56:25.532Z,24.98
2022-08-09T13:58:57.211Z,24.99
2022-08-09T14:01:56.482Z,24.97
2022-08-09T14:04:23.924Z,24.94
2022-08-09T14:07:00.399Z,24.92
2022-08-09T14:09:35.656Z,25.07
2022-08-09T14:12:15.484Z,25.22
2022-08-09T14:14:47.447Z,25.29
2022-08-09T14:17:25.690Z,25.39
2022-08-09T14:20:05.718Z,25.41
2022-08-09T14:22:38.696Z,25.33
2022-08-09T14:25:12.563Z,25.48
2022-08-09T14:27:56.991Z,25.56
2022-08-09T14:30:37.267Z,25.49
2022-08-09T14:33:13.258Z,25.63
2022-08-09T14:35:53.470Z,25.62
2022-08-09T14:38:25.112Z,25.56
2022-08-09T14:41:01.359Z,25.61
2022-08-09T14:43:47.390Z,25.79
2022-08-09T14:46:54.602Z,25.68
2022-08-09T14:49:16.484Z,25.64
2022-08-09T14:51:48.066Z,25.75
2022-08-09T14:54:22.166Z,25.79
2022-08-09T14:56:57.650Z,25.66
2022-08-09T14:59:30.192Z,25.71
2022-08-09T15:02:02.652Z,25.66
2022-08-09T15:04:34.112Z,25.68
2022-08-09T15:07:06.020Z,25.68
2022-08-09T15:10:04.610Z,25.85
2022-08-09T15:12:33.983Z,25.78
2022-08-09T15:15:08.587Z,25.64
2022-08-09T15:17:42.071Z,25.74
2022-08-09T15:21:58.871Z,25.81
2022-08-09T15:24:03.298Z,25.86
2022-08-09T15:25:59.797Z,26.02
2022-08-09T15:28:33.389Z,25.98
2022-08-09T15:31:09.953Z,25.88
2022-08-09T15:34:17.546Z,25.76
2022-08-09T15:36:34.781Z,25.68
2022-08-09T15:39:06.341Z,25.64
2022-08-09T15:41:38.357Z,25.60
2022-08-09T15:44:14.499Z,25.62
2022-08-09T15:46:51.230Z,25.48
2022-08-09T15:49:24.027Z,25.44
2022-08-09T15:52:03.112Z,25.41
2022-08-09T15:54:49.364Z,25.34
2022-08-09T15:57:34.242Z,25.26
2022-08-09T16:00:10.972Z,25.33
2022-08-09T16:02:53.458Z,25.47
2022-08-09T16:05:47.739Z,25.47
2022-08-09T16:08:30.833Z,25.45
2022-08-09T16:11:03.982Z,25.43
2022-08-09T16:14:03.392Z,25.27
2022-08-09T16:16:31.955Z,25.16
2022-08-09T16:19:02.186Z,25.18
2022-08-09T16:21:35.279Z,25.08
2022-08-09T16:24:19.992Z,24.94
2022-08-09T16:27:01.088Z,24.92
2022-08-09T16:29:37.374Z,24.92
2022-08-09T16:32:35.216Z,24.79
2022-08-09T16:35:08.052Z,24.71
2022-08-09T16:37:55.830Z,24.52
2022-08-09T16:40:40.398Z,24.50
2022-08-09T16:43:14.435Z,24.62
2022-08-09T16:45:46.435Z,24.55
2022-08-09T16:48:39.385Z,24.31
2022-08-09T16:51:14.323Z,24.16
2022-08-09T16:56:48.955Z,24.19
2022-08-09T16:59:21.080Z,24.12
2022-08-09T17:01:52.919Z,23.99
2022-08-09T17:04:28.445Z,24.12
2022-08-09T17:08:40.252Z,24.20
2022-08-09T17:09:52.668Z,24.22
2022-08-09T17:12:33.611Z,24.19
2022-08-09T17:15:30.499Z,24.09
2022-08-09T17:18:00.870Z,23.94
2022-08-09T17:20:38.871Z,23.97
2022-08-09T17:23:14.784Z,23.93
2022-08-09T17:25:52.958Z,23.90
2022-08-09T17:28:24.614Z,23.82
2022-08-09T17:30:58.458Z,23.69
2022-08-09T17:33:35.815Z,23.65
2022-08-09T17:36:15.761Z,23.70
2022-08-09T17:38:57.857Z,23.79
2022-08-09T17:41:38.553Z,23.85
2022-08-09T17:44:39.238Z,23.85
2022-08-09T17:47:04.149Z,23.72
2022-08-09T17:49:35.602Z,23.60
2022-08-09T17:52:08.075Z,23.73
2022-08-09T17:54:54.812Z,23.78
2022-08-09T17:58:03.876Z,23.60
2022-08-09T18:00:20.456Z,23.48
2022-08-09T18:03:06.700Z,23.41
2022-08-09T18:05:43.682Z,23.34
2022-08-09T18:08:16.212Z,23.27
2022-08-09T18:11:00.631Z,23.23
2022-08-09T18:13:39.258Z,23.37
2022-08-09T18:16:13.712Z,23.24
2022-08-09T18:18:49.105Z,23.09
2022-08-09T18:21:23.528Z,23.06
2022-08-09T18:24:10.554Z,23.05
2022-08-09T18:26:48.078Z,23.17
2022-08-09T18:30:38.914Z,23.18
2022-08-09T18:32:13.418Z,23.30
2022-08-09T18:34:45.243Z,23.16
2022-08-09T18:37:47.624Z,23.07
2022-08-09T18:40:11.781Z,22.99
2022-08-09T18:42:45.109Z,22.91
2022-08-09T18:45:21.547Z,22.79
2022-08-09T18:48:09.841Z,22.72
2022-08-09T18:50:42.845Z,22.60
2022-08-09T18:53:19.449Z,22.50
2022-08-09T18:55:57.302Z,22.56
2022-08-09T18:58:39.073Z,22.64
2022-08-09T19:01:11.384Z,22.56
2022-08-09T19:03:54.607Z,22.45
2022-08-09T19:06:38.409Z,22.30
2022-08-09T19:09:13.486Z,22.19
2022-08-09T19:11:52.168Z,22.12
2022-08-09T19:14:24.312Z,22.22
2022-08-09T19:17:00.699Z,22.32
2022-08-09T19:19:41.322Z,22.41
2022-08-09T19:22:15.242Z,22.27
2022-08-09T19:25:09.621Z,22.13
2022-08-09T19:27:40.520Z,22.14
2022-08-09T19:30:22.937Z,22.02
2022-08-09T19:33:01.201Z,21.91
2022-08-09T19:35:58.385Z,21.81
2022-08-09T19:38:24.737Z,21.84
2022-08-09T19:40:59.897Z,21.92
2022-08-09T19:44:02.160Z,21.83
2022-08-09T19:46:35.242Z,21.69
2022-08-09T19:50:08.467Z,21.69
2022-08-09T19:52:00.601Z,21.69
2022-08-09T19:54:35.049Z,21.59
2022-08-09T19:57:08.464Z,21.53
2022-08-09T20:00:00.049Z,21.57
2022-08-09T20:04:09.629Z,21.52
2022-08-09T20:05:26.977Z,21.67
2022-08-09T20:08:05.303Z,21.67
2022-08-09T20:10:38.489Z,21.70
2022-08-09T20:13:10.705Z,21.66
2022-08-09T20:16:34.152Z,21.52
2022-08-09T20:18:33.609Z,21.29
2022-08-09T20:21:08.548Z,21.14
2022-08-09T20:23:40.505Z,21.15
2022-08-09T20:26:13.158Z,21.16
2022-08-09T20:28:48.812Z,21.21
2022-08-09T20:31:22.457Z,21.26
2022-08-09T20:33:58.357Z,21.07
2022-08-09T20:36:33.442Z,21.02
2022-08-09T20:39:28.106Z,20.94
2022-08-09T20:42:01.418Z,21.00
2022-08-09T20:44:36.389Z,20.96
2022-08-09T20:47:45.502Z,20.98
2022-08-09T20:50:01.831Z,21.06
2022-08-09T20:52:34.952Z,20.91
2022-08-09T20:55:10.947Z,20.85
2022-08-09T20:58:05.194Z,20.71
2022-08-09T21:00:45.167Z,20.83
2022-08-09T21:03:22.033Z,20.88
2022-08-09T21:05:59.754Z,20.85
2022-08-09T21:08:36.508Z,20.75
2022-08-09T21:14:00.503Z,20.68
2022-08-09T21:16:32.101Z,20.84
2022-08-09T21:20:18.318Z,20.90
2022-08-09T21:21:57.401Z,20.90
2022-08-09T21:24:32.535Z,20.78
2022-08-09T21:27:50.207Z,20.56
2022-08-09T21:29:58.358Z,20.59
2022-08-09T21:32:33.654Z,20.53
2022-08-09T21:35:08.626Z,20.38
2022-08-09T21:37:58.804Z,20.34
2022-08-09T21:40:32.770Z,20.30
2022-08-09T21:43:06.370Z,20.39
2022-08-09T21:45:38.966Z,20.47
2022-08-09T21:48:11.607Z,20.44
2022-08-09T21:50:46.623Z,20.31
2022-08-09T21:53:39.839Z,20.25
2022-08-09T21:56:28.232Z,20.29
2022-08-09T21:59:04.094Z,20.29
2022-08-09T22:01:59.193Z,20.21
2022-08-09T22:04:55.598Z,20.18
2022-08-09T22:07:35.298Z,20.08
2022-08-09T22:10:14.873Z,20.06
2022-08-09T22:12:54.603Z,19.94
2022-08-09T22:15:34.728Z,19.70
2022-08-09T22:18:11.909Z,19.53
2022-08-09T22:20:44.010Z,19.56
2022-08-09T22:23:17.821Z,19.50
2022-08-09T22:26:07.646Z,19.53
2022-08-09T22:28:47.237Z,19.71
2022-08-09T22:31:25.958Z,19.65
2022-08-09T22:34:00.652Z,19.56
2022-08-09T22:36:45.690Z,19.46
2022-08-09T22:39:47.121Z,19.51
2022-08-09T22:42:20.991Z,19.50
2022-08-09T22:45:00.091Z,19.46
2022-08-09T22:48:18.808Z,19.44
2022-08-09T22:50:38.202Z,19.30
2022-08-09T22:53:09.742Z,19.27
2022-08-09T22:56:31.498Z,19.29
2022-08-09T22:58:33.744Z,19.33
2022-08-09T23:01:08.583Z,19.33
2022-08-09T23:04:03.244Z,19.17
2022-08-09T23:06:51.519Z,19.05
2022-08-09T23:09:23.431Z,19.10
2022-08-09T23:11:54.880Z,19.06
2022-08-09T23:14:37.352Z,19.08
2022-08-09T23:17:13.004Z,19.21
2022-08-09T23:20:00.633Z,19.08
2022-08-09T23:22:36.047Z,19.02
2022-08-09T23:25:08.420Z,19.09
2022-08-09T23:27:57.361Z,19.01
2022-08-09T23:30:31.907Z,18.93
2022-08-09T23:33:03.260Z,18.80
2022-08-09T23:36:04.457Z,18.68
2022-08-09T23:38:26.919Z,18.70
2022-08-09T23:40:58.978Z,18.74
2022-08-09T23:43:30.971Z,18.81
2022-08-09T23:46:02.623Z,18.72
2022-08-09T23:48:33.939Z,18.61
2022-08-09T23:51:05.830Z,18.49
2022-08-09T23:53:37.857Z,18.62
2022-08-09T23:56:11.829Z,18.57
2022-08-09T23:58:43.245Z,18.55
